createdAt,value
2019-01-02T00:00:45.700Z,1027.47
2019-01-02T00:01:45.770Z,1027.44
2019-01-02T00:02:45.749Z,1027.43
2019-01-02T00:03:46.096Z,1027.43
2019-01-02T00:04:45.857Z,1027.38
2019-01-02T00:05:45.873Z,1027.48
2019-01-02T00:06:45.925Z,1027.52
2019-01-02T00:08:45.992Z,1027.48
2019-01-02T00:09:45.958Z,1027.47
2019-01-02T00:10:46.306Z,1027.53
2019-01-02T00:11:46.020Z,1027.50
2019-01-02T00:12:46.157Z,1027.50
2019-01-02T00:13:46.086Z,1027.50
2019-01-02T00:14:46.114Z,1027.48
2019-01-02T00:15:46.145Z,1027.44
2019-01-02T00:16:46.173Z,1027.48
2019-01-02T00:17:46.504Z,1027.49
2019-01-02T00:18:46.339Z,1027.56
2019-01-02T00:19:46.323Z,1027.54
2019-01-02T00:21:46.325Z,1027.59
2019-01-02T00:22:46.426Z,1027.60
2019-01-02T00:25:46.499Z,1027.55
2019-01-02T00:26:46.781Z,1027.52
2019-01-02T00:27:46.560Z,1027.53
2019-01-02T00:28:46.544Z,1027.58
2019-01-02T00:29:46.624Z,1027.54
2019-01-02T00:30:46.603Z,1027.50
2019-01-02T00:31:46.696Z,1027.52
2019-01-02T00:32:46.668Z,1027.53
2019-01-02T00:33:46.998Z,1027.58
2019-01-02T00:34:46.746Z,1027.62
2019-01-02T00:35:46.758Z,1027.60
2019-01-02T00:36:46.838Z,1027.64
2019-01-02T00:37:46.818Z,1027.56
2019-01-02T00:38:46.896Z,1027.57
2019-01-02T00:39:46.885Z,1027.52
2019-01-02T00:40:46.909Z,1027.53
2019-01-02T00:41:46.945Z,1027.55
2019-01-02T00:42:47.072Z,1027.51
2019-01-02T00:43:47.064Z,1027.48
2019-01-02T00:44:47.046Z,1027.47
2019-01-02T00:45:47.116Z,1027.45
2019-01-02T00:47:47.425Z,1027.47
2019-01-02T00:48:47.159Z,1027.48
2019-01-02T00:49:47.232Z,1027.53
2019-01-02T00:50:47.221Z,1027.54
2019-01-02T00:51:47.300Z,1027.52
2019-01-02T00:52:47.331Z,1027.57
2019-01-02T00:53:47.364Z,1027.55
2019-01-02T00:54:47.785Z,1027.59
2019-01-02T00:55:47.417Z,1027.63
2019-01-02T00:56:47.456Z,1027.62
2019-01-02T00:57:47.477Z,1027.59
2019-01-02T00:58:47.464Z,1027.64
2019-01-02T00:59:47.493Z,1027.67
2019-01-02T01:00:47.522Z,1027.64
2019-01-02T01:01:47.961Z,1027.70
2019-01-02T01:02:47.623Z,1027.66
2019-01-02T01:03:47.670Z,1027.68
2019-01-02T01:04:47.702Z,1027.66
2019-01-02T01:05:47.678Z,1027.62
2019-01-02T01:06:47.801Z,1027.69
2019-01-02T01:07:47.787Z,1027.69
2019-01-02T01:08:48.073Z,1027.75
2019-01-02T01:09:47.796Z,1027.80
2019-01-02T01:10:47.881Z,1027.79
2019-01-02T01:11:47.913Z,1027.82
2019-01-02T01:12:47.946Z,1027.81
2019-01-02T01:13:47.965Z,1027.85
2019-01-02T01:14:47.949Z,1027.84
2019-01-02T01:15:48.277Z,1027.82
2019-01-02T01:16:48.108Z,1027.76
2019-01-02T01:17:48.089Z,1027.75
2019-01-02T01:18:48.071Z,1027.76
2019-01-02T01:19:48.155Z,1027.75
2019-01-02T01:20:48.134Z,1027.73
2019-01-02T01:21:48.261Z,1027.76
2019-01-02T01:22:48.488Z,1027.75
2019-01-02T01:23:48.358Z,1027.79
2019-01-02T01:24:48.302Z,1027.76
2019-01-02T01:25:48.329Z,1027.75
2019-01-02T01:26:48.313Z,1027.76
2019-01-02T01:27:48.344Z,1027.77
2019-01-02T01:28:48.423Z,1027.77
2019-01-02T01:29:48.704Z,1027.73
2019-01-02T01:30:48.432Z,1027.80
2019-01-02T01:31:48.538Z,1027.86
2019-01-02T01:32:49.940Z,1027.85
2019-01-02T01:34:48.805Z,1027.84
2019-01-02T01:35:48.640Z,1027.92
2019-01-02T01:36:48.948Z,1027.98
2019-01-02T01:37:48.708Z,1027.96
2019-01-02T01:38:48.680Z,1027.98
2019-01-02T01:39:48.776Z,1027.94
2019-01-02T01:40:48.794Z,1027.97
2019-01-02T01:41:48.793Z,1028.02
2019-01-02T01:42:49.098Z,1027.95
2019-01-02T01:43:48.830Z,1028.02
2019-01-02T01:44:48.929Z,1028.01
2019-01-02T01:45:48.943Z,1028.08
2019-01-02T01:46:48.924Z,1028.04
2019-01-02T01:47:49.021Z,1028.07
2019-01-02T01:48:49.309Z,1028.00
2019-01-02T01:49:49.025Z,1028.07
2019-01-02T01:50:49.103Z,1028.05
2019-01-02T01:51:49.133Z,1028.03
2019-01-02T01:52:49.172Z,1028.09
2019-01-02T01:53:49.186Z,1028.08
2019-01-02T01:54:49.476Z,1027.98
2019-01-02T01:55:49.298Z,1028.09
2019-01-02T01:56:49.280Z,1028.03
2019-01-02T01:57:49.313Z,1028.06
2019-01-02T01:58:49.314Z,1028.08
2019-01-02T01:59:49.374Z,1028.06
2019-01-02T02:00:49.411Z,1028.17
2019-01-02T02:01:49.682Z,1028.12
2019-01-02T02:02:49.468Z,1028.17
2019-01-02T02:03:49.488Z,1028.13
2019-01-02T02:04:49.525Z,1028.11
2019-01-02T02:05:49.552Z,1028.12
2019-01-02T02:06:49.586Z,1028.12
2019-01-02T02:07:50.505Z,1028.15
2019-01-02T02:08:49.897Z,1028.09
2019-01-02T02:09:49.752Z,1028.08
2019-01-02T02:10:49.661Z,1028.14
2019-01-02T02:11:49.741Z,1028.17
2019-01-02T02:12:49.943Z,1028.20
2019-01-02T02:13:49.800Z,1028.19
2019-01-02T02:15:50.112Z,1028.14
2019-01-02T02:16:49.897Z,1028.13
2019-01-02T02:17:49.930Z,1028.09
2019-01-02T02:18:49.905Z,1028.18
2019-01-02T02:19:49.977Z,1028.20
2019-01-02T02:20:50.017Z,1028.20
2019-01-02T02:21:50.044Z,1028.27
2019-01-02T02:22:50.321Z,1028.21
2019-01-02T02:25:50.113Z,1028.29
2019-01-02T02:26:50.239Z,1028.26
2019-01-02T02:27:50.239Z,1028.33
2019-01-02T02:28:50.209Z,1028.30
2019-01-02T02:29:50.580Z,1028.28
2019-01-02T02:30:50.266Z,1028.28
2019-01-02T02:31:50.356Z,1028.23
2019-01-02T02:32:50.404Z,1028.27
2019-01-02T02:33:50.364Z,1028.36
2019-01-02T02:34:50.393Z,1028.39
2019-01-02T02:35:50.464Z,1028.42
2019-01-02T02:36:50.751Z,1028.38
2019-01-02T02:37:50.527Z,1028.41
2019-01-02T02:38:50.506Z,1028.33
2019-01-02T02:39:50.607Z,1028.39
2019-01-02T02:40:50.569Z,1028.38
2019-01-02T02:41:50.596Z,1028.37
2019-01-02T02:42:50.674Z,1028.34
2019-01-02T02:43:50.957Z,1028.41
2019-01-02T02:44:50.740Z,1028.39
2019-01-02T02:45:50.773Z,1028.41
2019-01-02T02:46:50.751Z,1028.39
2019-01-02T02:47:50.867Z,1028.37
2019-01-02T02:48:50.813Z,1028.41
2019-01-02T02:49:50.894Z,1028.37
2019-01-02T02:50:51.178Z,1028.37
2019-01-02T02:51:50.955Z,1028.33
2019-01-02T02:52:50.948Z,1028.31
2019-01-02T02:53:51.027Z,1028.34
2019-01-02T02:54:51.042Z,1028.37
2019-01-02T02:55:51.078Z,1028.35
2019-01-02T02:56:51.065Z,1028.38
2019-01-02T02:57:51.401Z,1028.39
2019-01-02T02:58:51.175Z,1028.34
2019-01-02T02:59:51.504Z,1028.31
2019-01-02T03:00:51.234Z,1028.33
2019-01-02T03:01:51.300Z,1028.33
2019-01-02T03:02:51.310Z,1028.37
2019-01-02T03:03:51.320Z,1028.35
2019-01-02T03:04:51.659Z,1028.34
2019-01-02T03:05:51.323Z,1028.33
2019-01-02T03:06:55.386Z,1028.36
2019-01-02T03:07:51.450Z,1028.28
2019-01-02T03:08:51.433Z,1028.28
2019-01-02T03:09:51.513Z,1028.16
2019-01-02T03:10:51.481Z,1028.21
2019-01-02T03:11:51.820Z,1028.20
2019-01-02T03:12:51.643Z,1028.21
2019-01-02T03:13:51.632Z,1028.17
2019-01-02T03:14:51.597Z,1028.17
2019-01-02T03:15:51.705Z,1028.20
2019-01-02T03:16:51.658Z,1028.21
2019-01-02T03:17:51.746Z,1028.25
2019-01-02T03:18:52.025Z,1028.24
2019-01-02T03:19:51.802Z,1028.22
2019-01-02T03:20:51.783Z,1028.21
2019-01-02T03:21:51.826Z,1028.23
2019-01-02T03:22:51.995Z,1028.20
2019-01-02T03:23:51.928Z,1028.27
2019-01-02T03:24:51.904Z,1028.31
2019-01-02T03:25:52.281Z,1028.29
2019-01-02T03:26:51.966Z,1028.31
2019-01-02T03:27:52.049Z,1028.32
2019-01-02T03:28:52.036Z,1028.30
2019-01-02T03:29:52.058Z,1028.37
2019-01-02T03:30:52.094Z,1028.33
2019-01-02T03:31:52.425Z,1028.32
2019-01-02T03:32:52.200Z,1028.33
2019-01-02T03:33:52.232Z,1028.32
2019-01-02T03:34:52.211Z,1028.41
2019-01-02T03:35:52.241Z,1028.33
2019-01-02T03:37:52.353Z,1028.33
2019-01-02T03:38:52.379Z,1028.35
2019-01-02T03:39:52.407Z,1028.35
2019-01-02T03:40:52.441Z,1028.35
2019-01-02T03:41:52.420Z,1028.31
2019-01-02T03:42:52.505Z,1028.35
2019-01-02T03:43:52.533Z,1028.29
2019-01-02T03:44:52.863Z,1028.29
2019-01-02T03:45:52.593Z,1028.25
2019-01-02T03:46:52.826Z,1028.31
2019-01-02T03:47:52.604Z,1028.27
2019-01-02T03:48:52.773Z,1028.33
2019-01-02T03:49:52.716Z,1028.39
2019-01-02T03:50:52.993Z,1028.30
2019-01-02T03:51:52.823Z,1028.33
2019-01-02T03:52:52.752Z,1028.32
2019-01-02T03:53:52.798Z,1028.35
2019-01-02T03:54:52.863Z,1028.36
2019-01-02T03:55:52.897Z,1028.34
2019-01-02T03:57:52.960Z,1028.39
2019-01-02T03:58:53.244Z,1028.40
2019-01-02T03:59:52.969Z,1028.48
2019-01-02T04:00:53.043Z,1028.37
2019-01-02T04:01:53.078Z,1028.34
2019-01-02T04:02:53.073Z,1028.34
2019-01-02T04:03:53.191Z,1028.37
2019-01-02T04:04:53.123Z,1028.30
2019-01-02T04:05:53.456Z,1028.41
2019-01-02T04:06:53.230Z,1028.34
2019-01-02T04:07:53.255Z,1028.36
2019-01-02T04:08:53.290Z,1028.39
2019-01-02T04:09:53.373Z,1028.38
2019-01-02T04:10:53.303Z,1028.39
2019-01-02T04:11:53.374Z,1028.43
2019-01-02T04:12:53.760Z,1028.45
2019-01-02T04:13:53.491Z,1028.47
2019-01-02T04:15:53.499Z,1028.37
2019-01-02T04:16:53.538Z,1028.41
2019-01-02T04:17:53.612Z,1028.40
2019-01-02T04:18:53.588Z,1028.39
2019-01-02T04:19:54.169Z,1028.42
2019-01-02T04:20:53.657Z,1028.36
2019-01-02T04:21:53.639Z,1028.38
2019-01-02T04:22:53.660Z,1028.40
2019-01-02T04:23:53.741Z,1028.41
2019-01-02T04:24:53.799Z,1028.41
2019-01-02T04:25:53.797Z,1028.44
2019-01-02T04:26:54.138Z,1028.39
2019-01-02T04:27:53.867Z,1028.40
2019-01-02T04:28:53.847Z,1028.39
2019-01-02T04:29:53.926Z,1028.36
2019-01-02T04:30:53.906Z,1028.39
2019-01-02T04:31:53.991Z,1028.41
2019-01-02T04:32:54.015Z,1028.40
2019-01-02T04:33:54.301Z,1028.29
2019-01-02T04:34:54.094Z,1028.32
2019-01-02T04:35:54.111Z,1028.31
2019-01-02T04:36:54.137Z,1028.40
2019-01-02T04:37:54.164Z,1028.39
2019-01-02T04:39:54.244Z,1028.40
2019-01-02T04:41:37.662Z,1028.40
2019-01-02T04:42:37.676Z,1028.39
2019-01-02T04:43:37.740Z,1028.42
2019-01-02T04:44:37.749Z,1028.40
2019-01-02T04:45:37.717Z,1028.34
2019-01-02T04:46:37.800Z,1028.35
2019-01-02T04:47:38.127Z,1028.35
2019-01-02T04:48:37.862Z,1028.34
2019-01-02T04:49:37.836Z,1028.33
2019-01-02T04:50:37.922Z,1028.36
2019-01-02T04:52:37.986Z,1028.39
2019-01-02T05:27:39.279Z,1028.70
2019-01-02T05:28:39.063Z,1028.73
2019-01-02T05:29:39.042Z,1028.76
2019-01-02T05:31:39.100Z,1028.74
2019-01-02T05:32:39.139Z,1028.74
2019-01-02T05:33:39.215Z,1028.72
2019-01-02T05:34:39.202Z,1028.74
2019-01-02T05:35:39.278Z,1028.73
2019-01-02T05:36:39.305Z,1028.76
2019-01-02T05:37:39.338Z,1028.70
2019-01-02T05:38:39.320Z,1028.76
2019-01-02T05:39:39.352Z,1028.77
2019-01-02T05:40:39.673Z,1028.77
2019-01-02T05:41:39.423Z,1028.83
2019-01-02T05:42:39.483Z,1028.80
2019-01-02T05:43:39.469Z,1028.82
2019-01-02T05:44:39.542Z,1028.81
2019-01-02T05:45:39.544Z,1028.83
2019-01-02T05:46:39.612Z,1028.83
2019-01-02T05:47:39.585Z,1028.83
2019-01-02T05:48:39.661Z,1028.86
2019-01-02T05:49:39.649Z,1028.87
2019-01-02T05:51:39.707Z,1028.96
2019-01-02T05:52:39.742Z,1028.91
2019-01-02T05:53:40.118Z,1028.91
2019-01-02T05:54:39.794Z,1028.91
2019-01-02T05:55:39.831Z,1028.97
2019-01-02T05:56:39.912Z,1028.95
2019-01-02T05:57:39.892Z,1028.96
2019-01-02T05:58:39.970Z,1028.93
2019-01-02T05:59:40.259Z,1028.93
2019-01-02T06:00:40.037Z,1028.94
2019-01-02T06:03:40.113Z,1028.98
2019-01-02T06:04:40.100Z,1028.90
2019-01-02T06:05:40.178Z,1028.85
2019-01-02T06:07:40.184Z,1028.84
2019-01-02T06:08:40.268Z,1028.89
2019-01-02T06:09:40.298Z,1028.94
2019-01-02T06:10:40.337Z,1028.95
2019-01-02T06:11:40.605Z,1029.00
2019-01-02T06:12:40.394Z,1028.98
2019-01-02T06:13:40.397Z,1029.01
2019-01-02T06:14:40.394Z,1029.06
2019-01-02T06:15:40.530Z,1029.05
2019-01-02T06:16:40.508Z,1029.07
2019-01-02T06:17:40.488Z,1029.07
2019-01-02T06:18:40.827Z,1029.05
2019-01-02T06:19:40.548Z,1029.06
2019-01-02T06:20:40.626Z,1029.02
2019-01-02T06:21:40.666Z,1029.06
2019-01-02T06:22:40.642Z,1029.07
2019-01-02T06:23:40.718Z,1029.07
2019-01-02T06:24:40.752Z,1029.06
2019-01-02T06:25:41.037Z,1029.00
2019-01-02T06:26:40.762Z,1029.06
2019-01-02T06:27:40.853Z,1029.11
2019-01-02T06:28:40.882Z,1029.11
2019-01-02T06:29:40.907Z,1029.10
2019-01-02T06:30:40.938Z,1029.13
2019-01-02T06:31:40.907Z,1029.12
2019-01-02T06:32:41.294Z,1029.12
2019-01-02T06:33:40.972Z,1029.09
2019-01-02T06:34:41.058Z,1029.14
2019-01-02T06:35:41.027Z,1029.11
2019-01-02T06:37:41.196Z,1029.12
2019-01-02T06:38:41.173Z,1029.12
2019-01-02T06:39:41.453Z,1029.12
2019-01-02T06:40:41.229Z,1029.18
2019-01-02T06:41:41.207Z,1029.13
2019-01-02T06:42:41.300Z,1029.13
2019-01-02T06:43:41.267Z,1029.16
2019-01-02T06:44:41.361Z,1029.17
2019-01-02T06:45:41.333Z,1029.16
2019-01-02T06:46:41.360Z,1029.22
2019-01-02T06:47:41.443Z,1029.23
2019-01-02T06:48:41.510Z,1029.23
2019-01-02T06:49:41.452Z,1029.22
2019-01-02T06:50:41.533Z,1029.15
2019-01-02T06:51:41.512Z,1029.19
2019-01-02T06:52:41.845Z,1029.17
2019-01-02T06:53:41.617Z,1029.25
2019-01-02T06:54:41.643Z,1029.19
2019-01-02T06:55:41.678Z,1029.23
2019-01-02T06:56:41.714Z,1029.28
2019-01-02T06:57:41.692Z,1029.32
2019-01-02T06:58:41.725Z,1029.29
2019-01-02T06:59:42.060Z,1029.30
2019-01-02T07:00:41.785Z,1029.31
2019-01-02T07:01:41.864Z,1029.29
2019-01-02T07:02:41.860Z,1029.30
2019-01-02T07:03:41.867Z,1029.33
2019-01-02T07:04:41.903Z,1029.37
2019-01-02T07:05:41.931Z,1029.41
2019-01-02T07:06:42.317Z,1029.35
2019-01-02T07:07:41.996Z,1029.40
2019-01-02T07:08:42.074Z,1029.48
2019-01-02T07:09:42.062Z,1029.45
2019-01-02T07:10:42.136Z,1029.47
2019-01-02T07:11:42.157Z,1029.47
2019-01-02T07:12:42.188Z,1029.51
2019-01-02T07:13:42.471Z,1029.49
2019-01-02T07:14:42.199Z,1029.50
2019-01-02T07:15:42.235Z,1029.53
2019-01-02T07:17:42.342Z,1029.57
2019-01-02T07:18:42.318Z,1029.59
2019-01-02T07:19:42.778Z,1029.56
2019-01-02T07:20:42.427Z,1029.60
2019-01-02T07:21:42.469Z,1029.56
2019-01-02T07:22:42.486Z,1029.62
2019-01-02T07:24:42.548Z,1029.57
2019-01-02T07:26:42.556Z,1029.64
2019-01-02T07:27:42.644Z,1029.61
2019-01-02T07:28:42.626Z,1029.53
2019-01-02T07:30:42.680Z,1029.64
2019-01-02T07:31:43.013Z,1029.60
2019-01-02T07:32:42.789Z,1029.66
2019-01-02T07:33:42.821Z,1029.64
2019-01-02T07:34:42.819Z,1029.66
2019-01-02T07:35:42.882Z,1029.66
2019-01-02T07:36:42.912Z,1029.74
2019-01-02T07:37:42.892Z,1029.75
2019-01-02T07:38:43.226Z,1029.74
2019-01-02T07:40:42.982Z,1029.78
2019-01-02T07:41:43.061Z,1029.80
2019-01-02T07:42:43.086Z,1029.82
2019-01-02T07:43:43.068Z,1029.82
2019-01-02T07:44:43.154Z,1029.84
2019-01-02T07:45:43.426Z,1029.85
2019-01-02T07:46:43.165Z,1029.85
2019-01-02T07:47:43.237Z,1029.84
2019-01-02T07:48:43.271Z,1029.88
2019-01-02T07:49:43.255Z,1029.87
2019-01-02T07:50:43.283Z,1029.93
2019-01-02T07:51:43.355Z,1029.93
2019-01-02T07:52:43.391Z,1029.95
2019-01-02T07:53:43.370Z,1029.96
2019-01-02T07:54:43.398Z,1029.97
2019-01-02T07:55:43.488Z,1029.99
2019-01-02T07:56:43.510Z,1030.00
2019-01-02T07:57:43.542Z,1030.08
2019-01-02T07:58:43.525Z,1030.09
2019-01-02T07:59:43.566Z,1030.08
2019-01-02T08:00:43.576Z,1030.09
2019-01-02T08:01:43.608Z,1030.11
2019-01-02T08:02:43.689Z,1030.15
2019-01-02T08:03:43.668Z,1030.13
2019-01-02T08:04:43.996Z,1030.10
2019-01-02T08:05:43.733Z,1030.08
2019-01-02T08:06:43.760Z,1030.15
2019-01-02T08:07:43.840Z,1030.14
2019-01-02T08:08:43.814Z,1030.20
2019-01-02T08:09:43.844Z,1030.18
2019-01-02T08:10:43.886Z,1030.17
2019-01-02T08:11:44.206Z,1030.20
2019-01-02T08:12:43.990Z,1030.18
2019-01-02T08:13:43.972Z,1030.19
2019-01-02T08:14:44.022Z,1030.22
2019-01-02T08:15:44.030Z,1030.24
2019-01-02T08:16:44.060Z,1030.20
2019-01-02T08:17:44.386Z,1030.22
2019-01-02T08:18:44.176Z,1030.26
2019-01-02T08:19:44.147Z,1030.33
2019-01-02T08:20:44.230Z,1030.32
2019-01-02T08:21:44.209Z,1030.32
2019-01-02T08:22:44.248Z,1030.28
2019-01-02T08:23:45.893Z,1030.35
2019-01-02T08:24:44.349Z,1030.28
2019-01-02T08:25:44.383Z,1030.24
2019-01-02T08:26:44.358Z,1030.26
2019-01-02T08:27:44.394Z,1030.25
2019-01-02T08:28:44.469Z,1030.22
2019-01-02T08:29:44.749Z,1030.28
2019-01-02T08:30:44.573Z,1030.29
2019-01-02T08:31:44.518Z,1030.26
2019-01-02T08:32:44.587Z,1030.27
2019-01-02T08:33:44.615Z,1030.26
2019-01-02T08:34:44.644Z,1030.19
2019-01-02T08:35:44.629Z,1030.22
2019-01-02T08:36:44.712Z,1030.23
2019-01-02T08:37:44.687Z,1030.20
2019-01-02T08:38:44.722Z,1030.27
2019-01-02T08:39:44.799Z,1030.28
2019-01-02T08:40:44.825Z,1030.30
2019-01-02T08:41:44.805Z,1030.30
2019-01-02T08:42:45.134Z,1030.30
2019-01-02T08:43:44.873Z,1030.29
2019-01-02T08:44:44.949Z,1030.20
2019-01-02T08:45:44.974Z,1030.24
2019-01-02T08:46:45.021Z,1030.22
2019-01-02T08:47:44.997Z,1030.22
2019-01-02T08:48:45.012Z,1030.18
2019-01-02T08:49:45.102Z,1030.26
2019-01-02T08:50:45.135Z,1030.23
2019-01-02T08:51:45.156Z,1030.23
2019-01-02T08:52:45.191Z,1030.29
2019-01-02T08:53:45.166Z,1030.28
2019-01-02T08:54:45.195Z,1030.35
2019-01-02T08:55:45.577Z,1030.39
2019-01-02T08:56:45.314Z,1030.42
2019-01-02T08:57:45.283Z,1030.30
2019-01-02T08:58:45.319Z,1030.38
2019-01-02T09:00:45.434Z,1030.41
2019-01-02T09:01:45.479Z,1030.41
2019-01-02T09:02:45.735Z,1030.35
2019-01-02T09:03:45.471Z,1030.37
2019-01-02T09:04:45.498Z,1030.40
2019-01-02T09:05:45.728Z,1030.49
2019-01-02T09:07:45.585Z,1030.46
2019-01-02T09:08:45.672Z,1030.48
2019-01-02T09:09:45.947Z,1030.49
2019-01-02T09:10:45.732Z,1030.44
2019-01-02T09:12:45.791Z,1030.52
2019-01-02T09:13:45.763Z,1030.60
2019-01-02T09:14:45.857Z,1030.52
2019-01-02T09:15:46.175Z,1030.58
2019-01-02T09:16:45.905Z,1030.58
2019-01-02T09:17:45.886Z,1030.59
2019-01-02T09:18:45.923Z,1030.58
2019-01-02T09:19:46.000Z,1030.59
2019-01-02T09:20:45.982Z,1030.61
2019-01-02T09:21:46.063Z,1030.64
2019-01-02T09:22:46.034Z,1030.64
2019-01-02T09:23:46.067Z,1030.65
2019-01-02T09:24:46.101Z,1030.65
2019-01-02T09:25:46.131Z,1030.68
2019-01-02T09:28:46.275Z,1030.81
2019-01-02T09:29:46.554Z,1030.87
2019-01-02T09:31:46.362Z,1030.92
2019-01-02T09:32:46.337Z,1030.90
2019-01-02T09:33:52.068Z,1030.86
2019-01-02T09:34:46.509Z,1030.87
2019-01-02T09:35:46.766Z,1030.89
2019-01-02T09:36:46.558Z,1030.95
2019-01-02T09:37:46.538Z,1031.01
2019-01-02T09:38:46.568Z,1031.02
2019-01-02T09:39:46.598Z,1030.90
2019-01-02T09:40:46.701Z,1030.91
2019-01-02T09:41:46.907Z,1030.89
2019-01-02T09:42:46.685Z,1030.86
2019-01-02T09:43:46.670Z,1030.90
2019-01-02T09:44:46.757Z,1030.91
2019-01-02T09:45:46.792Z,1030.88
2019-01-02T09:46:46.808Z,1030.89
2019-01-02T09:47:46.786Z,1030.89
2019-01-02T09:48:46.867Z,1030.87
2019-01-02T09:49:46.898Z,1030.87
2019-01-02T09:50:46.877Z,1030.80
2019-01-02T09:51:46.914Z,1030.81
2019-01-02T09:52:47.086Z,1030.82
2019-01-02T09:53:46.970Z,1030.80
2019-01-02T09:54:47.349Z,1030.81
2019-01-02T09:55:47.034Z,1030.85
2019-01-02T09:56:47.111Z,1030.89
2019-01-02T09:57:47.085Z,1030.89
2019-01-02T09:58:47.122Z,1030.90
2019-01-02T09:59:47.200Z,1030.92
2019-01-02T10:00:47.236Z,1030.86
2019-01-02T10:01:47.511Z,1030.93
2019-01-02T10:02:47.241Z,1030.80
2019-01-02T10:03:47.265Z,1030.89
2019-01-02T10:04:47.353Z,1030.85
2019-01-02T10:05:47.331Z,1030.88
2019-01-02T10:06:47.361Z,1030.89
2019-01-02T10:07:47.388Z,1030.88
2019-01-02T10:08:47.423Z,1030.89
2019-01-02T10:09:47.503Z,1030.96
2019-01-02T10:10:47.484Z,1030.96
2019-01-02T10:11:47.511Z,1030.98
2019-01-02T10:12:47.592Z,1030.96
2019-01-02T10:13:47.622Z,1030.99
2019-01-02T10:14:47.901Z,1030.98
2019-01-02T10:15:47.634Z,1030.92
2019-01-02T10:16:47.713Z,1030.94
2019-01-02T10:17:47.746Z,1030.94
2019-01-02T10:19:47.753Z,1030.92
2019-01-02T10:20:47.841Z,1030.93
2019-01-02T10:21:47.875Z,1030.94
2019-01-02T10:22:47.845Z,1030.92
2019-01-02T10:23:47.875Z,1030.95
2019-01-02T10:24:47.905Z,1030.92
2019-01-02T10:25:47.983Z,1030.89
2019-01-02T10:26:48.014Z,1030.91
2019-01-02T10:27:47.994Z,1030.89
2019-01-02T10:28:48.079Z,1030.92
2019-01-02T10:29:48.112Z,1030.93
2019-01-02T10:30:48.089Z,1030.89
2019-01-02T10:31:48.168Z,1030.94
2019-01-02T10:32:48.204Z,1030.87
2019-01-02T10:33:48.170Z,1030.91
2019-01-02T10:34:48.219Z,1030.90
2019-01-02T10:35:48.287Z,1030.92
2019-01-02T10:36:48.317Z,1030.92
2019-01-02T10:37:48.348Z,1030.87
2019-01-02T10:38:48.377Z,1030.90
2019-01-02T10:39:48.727Z,1030.94
2019-01-02T10:40:48.389Z,1030.91
2019-01-02T10:41:48.412Z,1030.96
2019-01-02T10:42:48.503Z,1030.95
2019-01-02T10:43:48.540Z,1030.89
2019-01-02T10:45:48.866Z,1030.97
2019-01-02T10:46:48.565Z,1030.94
2019-01-02T10:47:48.609Z,1030.87
2019-01-02T10:48:48.681Z,1030.95
2019-01-02T10:49:48.714Z,1030.98
2019-01-02T10:50:48.686Z,1030.95
2019-01-02T10:51:49.019Z,1030.97
2019-01-02T10:52:49.153Z,1030.89
2019-01-02T10:53:48.778Z,1030.93
2019-01-02T10:54:48.865Z,1030.96
2019-01-02T10:55:48.889Z,1030.93
2019-01-02T10:56:48.874Z,1030.95
2019-01-02T10:57:48.904Z,1030.92
2019-01-02T10:58:48.929Z,1030.96
2019-01-02T10:59:48.969Z,1030.96
2019-01-02T11:00:49.043Z,1030.98
2019-01-02T11:01:49.076Z,1031.05
2019-01-02T11:02:49.057Z,1030.97
2019-01-02T11:03:49.084Z,1030.98
2019-01-02T11:04:49.408Z,1031.00
2019-01-02T11:05:49.188Z,1030.96
2019-01-02T11:06:49.227Z,1031.01
2019-01-02T11:07:49.201Z,1030.99
2019-01-02T11:08:49.290Z,1031.00
2019-01-02T11:09:50.321Z,1031.01
2019-01-02T11:10:49.296Z,1031.03
2019-01-02T11:11:49.332Z,1030.99
2019-01-02T11:12:49.409Z,1031.04
2019-01-02T11:13:49.435Z,1031.01
2019-01-02T11:15:49.553Z,1031.02
2019-01-02T11:16:49.530Z,1031.00
2019-01-02T11:17:49.511Z,1030.99
2019-01-02T11:18:49.535Z,1030.96
2019-01-02T11:19:49.568Z,1030.95
2019-01-02T11:20:49.646Z,1030.97
2019-01-02T11:21:49.673Z,1030.95
2019-01-02T11:22:49.972Z,1030.94
2019-01-02T11:23:49.686Z,1030.87
2019-01-02T11:24:49.773Z,1030.94
2019-01-02T11:25:49.806Z,1030.91
2019-01-02T11:26:49.778Z,1030.89
2019-01-02T11:27:49.814Z,1030.88
2019-01-02T11:28:49.836Z,1030.87
2019-01-02T11:29:49.918Z,1030.83
2019-01-02T11:30:49.906Z,1030.83
2019-01-02T11:31:49.991Z,1030.84
2019-01-02T11:33:50.043Z,1030.88
2019-01-02T11:34:50.023Z,1030.92
2019-01-02T11:35:50.051Z,1030.88
2019-01-02T11:36:50.137Z,1030.95
2019-01-02T11:37:50.120Z,1030.85
2019-01-02T11:38:50.195Z,1030.90
2019-01-02T11:39:50.322Z,1030.90
2019-01-02T11:40:50.258Z,1030.86
2019-01-02T11:41:50.541Z,1030.90
2019-01-02T11:42:50.263Z,1030.87
2019-01-02T11:43:50.346Z,1030.90
2019-01-02T11:44:50.388Z,1030.89
2019-01-02T11:45:50.792Z,1030.90
2019-01-02T11:46:50.395Z,1030.91
2019-01-02T11:47:50.720Z,1030.97
2019-01-02T11:48:50.506Z,1030.92
2019-01-02T11:49:50.535Z,1030.90
2019-01-02T11:50:50.568Z,1030.90
2019-01-02T11:51:50.549Z,1030.92
2019-01-02T11:52:50.624Z,1030.89
2019-01-02T11:53:50.967Z,1030.95
2019-01-02T11:54:50.696Z,1030.93
2019-01-02T11:55:50.662Z,1030.90
2019-01-02T11:56:51.159Z,1030.93
2019-01-02T11:57:50.775Z,1030.94
2019-01-02T11:58:50.816Z,1030.95
2019-01-02T11:59:51.082Z,1030.96
2019-01-02T12:00:50.867Z,1031.00
2019-01-02T12:01:50.908Z,1030.94
2019-01-02T12:02:50.886Z,1030.97
2019-01-02T12:03:50.954Z,1030.99
2019-01-02T12:04:50.998Z,1030.93
2019-01-02T12:05:50.980Z,1030.93
2019-01-02T12:06:51.475Z,1030.94
2019-01-02T12:07:51.049Z,1030.98
2019-01-02T12:08:51.076Z,1030.98
2019-01-02T12:09:51.218Z,1030.95
2019-01-02T12:10:51.164Z,1030.92
2019-01-02T12:12:51.191Z,1030.92
2019-01-02T12:13:51.576Z,1030.92
2019-01-02T12:14:51.250Z,1030.89
2019-01-02T12:15:51.278Z,1030.90
2019-01-02T12:16:51.452Z,1030.91
2019-01-02T12:17:51.380Z,1030.91
2019-01-02T12:18:51.362Z,1030.90
2019-01-02T12:19:51.481Z,1030.87
2019-01-02T12:20:51.772Z,1030.89
2019-01-02T12:21:51.534Z,1030.91
2019-01-02T12:22:51.486Z,1030.87
2019-01-02T12:23:51.576Z,1030.90
2019-01-02T12:24:51.615Z,1030.82
2019-01-02T12:25:51.644Z,1030.89
2019-01-02T12:26:51.671Z,1030.82
2019-01-02T12:27:51.950Z,1030.84
2019-01-02T12:28:51.722Z,1030.78
2019-01-02T12:29:51.767Z,1030.83
2019-01-02T12:30:51.736Z,1030.78
2019-01-02T12:31:51.766Z,1030.81
2019-01-02T12:32:51.811Z,1030.79
2019-01-02T12:33:51.875Z,1030.84
2019-01-02T12:34:52.212Z,1030.89
2019-01-02T12:35:51.895Z,1030.86
2019-01-02T12:36:51.979Z,1030.89
2019-01-02T12:37:51.996Z,1030.84
2019-01-02T12:38:52.043Z,1030.83
2019-01-02T12:40:52.107Z,1030.82
2019-01-02T12:41:52.426Z,1030.85
2019-01-02T12:42:52.103Z,1030.87
2019-01-02T12:43:52.202Z,1030.88
2019-01-02T12:44:52.288Z,1030.90
2019-01-02T12:46:52.277Z,1030.89
2019-01-02T12:47:52.258Z,1030.87
2019-01-02T12:48:52.650Z,1030.90
2019-01-02T12:49:52.320Z,1030.91
2019-01-02T12:50:52.403Z,1030.88
2019-01-02T12:51:52.427Z,1030.89
2019-01-02T12:52:52.461Z,1030.87
2019-01-02T12:53:52.456Z,1030.91
2019-01-02T12:54:52.469Z,1030.94
2019-01-02T12:55:52.549Z,1030.91
2019-01-02T12:56:52.547Z,1030.90
2019-01-02T12:58:52.648Z,1030.88
2019-01-02T12:59:52.679Z,1030.92
2019-01-02T13:00:52.710Z,1030.87
2019-01-02T13:01:53.031Z,1030.96
2019-01-02T13:02:52.814Z,1030.97
2019-01-02T13:03:52.743Z,1030.96
2019-01-02T13:04:52.829Z,1030.97
2019-01-02T13:05:52.854Z,1030.96
2019-01-02T13:06:52.836Z,1030.97
2019-01-02T13:07:53.227Z,1031.01
2019-01-02T13:09:53.005Z,1031.02
2019-01-02T13:10:52.980Z,1031.12
2019-01-02T13:11:53.122Z,1031.16
2019-01-02T13:12:53.100Z,1031.05
2019-01-02T13:13:53.374Z,1031.16
2019-01-02T13:14:53.136Z,1031.17
2019-01-02T13:15:53.240Z,1031.21
2019-01-02T13:16:53.209Z,1031.16
2019-01-02T13:17:53.207Z,1031.18
2019-01-02T13:18:53.218Z,1031.16
2019-01-02T13:19:53.323Z,1031.16
2019-01-02T13:20:53.325Z,1031.20